sensor_id;sensor_type;location;lat;lon;timestamp;pressure;altitude;pressure_sealevel;temperature;humidity
62634;BME280;48704;50.534;6.442;2022-09-25T00:00:41;95302.47;;;8.87;100.00
62634;BME280;48704;50.534;6.442;2022-09-25T00:03:07;95301.53;;;8.90;100.00
62634;BME280;48704;50.534;6.442;2022-09-25T00:05:38;95309.19;;;8.95;100.00
62634;BME280;48704;50.534;6.442;2022-09-25T00:08:04;95300.22;;;9.00;100.00
62634;BME280;48704;50.534;6.442;2022-09-25T00:10:31;95306.41;;;8.95;100.00
62634;BME280;48704;50.534;6.442;2022-09-25T00:12:56;95309.44;;;9.06;100.00
62634;BME280;48704;50.534;6.442;2022-09-25T00:15:22;95311.16;;;9.03;100.00
62634;BME280;48704;50.534;6.442;2022-09-25T00:17:47;95308.66;;;9.05;100.00
62634;BME280;48704;50.534;6.442;2022-09-25T00:20:15;95314.53;;;9.08;100.00
62634;BME280;48704;50.534;6.442;2022-09-25T00:22:41;95317.41;;;9.13;100.00
62634;BME280;48704;50.534;6.442;2022-09-25T00:25:09;95310.25;;;9.21;100.00
62634;BME280;48704;50.534;6.442;2022-09-25T00:27:35;95316.59;;;9.36;100.00
62634;BME280;48704;50.534;6.442;2022-09-25T00:30:00;95318.34;;;9.49;100.00
62634;BME280;48704;50.534;6.442;2022-09-25T00:32:25;95311.66;;;9.55;100.00
62634;BME280;48704;50.534;6.442;2022-09-25T00:34:51;95318.34;;;9.49;100.00
62634;BME280;48704;50.534;6.442;2022-09-25T00:37:16;95307.63;;;9.56;100.00
62634;BME280;48704;50.534;6.442;2022-09-25T00:39:41;95306.28;;;9.52;100.00
62634;BME280;48704;50.534;6.442;2022-09-25T00:42:11;95309.53;;;9.50;100.00
62634;BME280;48704;50.534;6.442;2022-09-25T00:45:14;95307.22;;;9.49;100.00
62634;BME280;48704;50.534;6.442;2022-09-25T00:50:21;95300.81;;;9.57;100.00
62634;BME280;48704;50.534;6.442;2022-09-25T00:52:51;95289.00;;;9.77;100.00
62634;BME280;48704;50.534;6.442;2022-09-25T00:55:18;95295.25;;;9.57;100.00
62634;BME280;48704;50.534;6.442;2022-09-25T00:57:46;95296.97;;;9.55;100.00
62634;BME280;48704;50.534;6.442;2022-09-25T01:00:13;95298.81;;;9.58;100.00
62634;BME280;48704;50.534;6.442;2022-09-25T01:02:41;95289.31;;;9.64;100.00
62634;BME280;48704;50.534;6.442;2022-09-25T01:05:11;95294.28;;;9.75;100.00
62634;BME280;48704;50.534;6.442;2022-09-25T01:07:40;95297.94;;;9.81;100.00
62634;BME280;48704;50.534;6.442;2022-09-25T01:10:07;95298.63;;;9.61;100.00
62634;BME280;48704;50.534;6.442;2022-09-25T01:12:39;95298.44;;;9.65;100.00
62634;BME280;48704;50.534;6.442;2022-09-25T01:15:09;95291.50;;;9.75;100.00
62634;BME280;48704;50.534;6.442;2022-09-25T01:18:58;95290.94;;;9.71;100.00
62634;BME280;48704;50.534;6.442;2022-09-25T01:23:49;95288.63;;;9.69;100.00
62634;BME280;48704;50.534;6.442;2022-09-25T01:29:35;95283.16;;;9.75;100.00
62634;BME280;48704;50.534;6.442;2022-09-25T01:32:27;95289.97;;;9.74;100.00
62634;BME280;48704;50.534;6.442;2022-09-25T01:35:16;95283.81;;;9.70;100.00
62634;BME280;48704;50.534;6.442;2022-09-25T01:40:24;95289.38;;;9.70;100.00
62634;BME280;48704;50.534;6.442;2022-09-25T01:42:54;95290.25;;;9.76;100.00
62634;BME280;48704;50.534;6.442;2022-09-25T01:45:27;95294.78;;;9.59;100.00
62634;BME280;48704;50.534;6.442;2022-09-25T01:47:56;95287.97;;;9.60;100.00
62634;BME280;48704;50.534;6.442;2022-09-25T01:50:31;95288.06;;;9.51;100.00
62634;BME280;48704;50.534;6.442;2022-09-25T01:53:01;95289.69;;;9.57;100.00
62634;BME280;48704;50.534;6.442;2022-09-25T01:55:35;95285.19;;;9.60;100.00
62634;BME280;48704;50.534;6.442;2022-09-25T01:58:37;95288.81;;;9.66;100.00
62634;BME280;48704;50.534;6.442;2022-09-25T02:01:12;95282.50;;;9.80;100.00
62634;BME280;48704;50.534;6.442;2022-09-25T02:03:53;95283.53;;;9.68;100.00
62634;BME280;48704;50.534;6.442;2022-09-25T02:06:21;95291.13;;;9.67;100.00
62634;BME280;48704;50.534;6.442;2022-09-25T02:08:58;95280.75;;;9.53;100.00
62634;BME280;48704;50.534;6.442;2022-09-25T02:11:32;95292.66;;;9.54;100.00
62634;BME280;48704;50.534;6.442;2022-09-25T02:14:17;95283.63;;;9.73;100.00
62634;BME280;48704;50.534;6.442;2022-09-25T02:16:46;95284.22;;;9.92;100.00
62634;BME280;48704;50.534;6.442;2022-09-25T02:19:14;95286.72;;;9.76;100.00
62634;BME280;48704;50.534;6.442;2022-09-25T02:22:07;95292.34;;;9.66;100.00
62634;BME280;48704;50.534;6.442;2022-09-25T02:24:49;95281.72;;;9.80;100.00
62634;BME280;48704;50.534;6.442;2022-09-25T02:27:18;95284.03;;;9.81;100.00
62634;BME280;48704;50.534;6.442;2022-09-25T02:29:45;95289.59;;;9.81;100.00
62634;BME280;48704;50.534;6.442;2022-09-25T02:32:12;95280.00;;;9.82;100.00
62634;BME280;48704;50.534;6.442;2022-09-25T02:34:39;95282.88;;;9.73;100.00
62634;BME280;48704;50.534;6.442;2022-09-25T02:37:13;95287.19;;;9.74;100.00
62634;BME280;48704;50.534;6.442;2022-09-25T02:39:39;95286.13;;;9.71;100.00
62634;BME280;48704;50.534;6.442;2022-09-25T02:47:46;95290.34;;;9.82;100.00
62634;BME280;48704;50.534;6.442;2022-09-25T02:50:24;95291.31;;;9.79;100.00
62634;BME280;48704;50.534;6.442;2022-09-25T02:58:40;95284.69;;;9.76;100.00
62634;BME280;48704;50.534;6.442;2022-09-25T03:01:09;95288.44;;;9.73;100.00
62634;BME280;48704;50.534;6.442;2022-09-25T03:03:38;95281.16;;;9.61;100.00
62634;BME280;48704;50.534;6.442;2022-09-25T03:06:05;95278.44;;;9.66;100.00
62634;BME280;48704;50.534;6.442;2022-09-25T03:08:35;95286.31;;;9.68;100.00
62634;BME280;48704;50.534;6.442;2022-09-25T03:11:04;95290.06;;;9.80;100.00
62634;BME280;48704;50.534;6.442;2022-09-25T03:13:30;95286.72;;;9.61;100.00
62634;BME280;48704;50.534;6.442;2022-09-25T03:16:01;95291.69;;;9.71;100.00
62634;BME280;48704;50.534;6.442;2022-09-25T03:18:28;95289.56;;;9.66;100.00
62634;BME280;48704;50.534;6.442;2022-09-25T03:20:55;95298.44;;;9.65;100.00
62634;BME280;48704;50.534;6.442;2022-09-25T03:23:20;95286.25;;;9.62;100.00
62634;BME280;48704;50.534;6.442;2022-09-25T03:25:46;95291.34;;;9.64;100.00
62634;BME280;48704;50.534;6.442;2022-09-25T03:28:12;95287.00;;;9.48;100.00
62634;BME280;48704;50.534;6.442;2022-09-25T03:30:39;95294.59;;;9.62;100.00
62634;BME280;48704;50.534;6.442;2022-09-25T03:33:08;95289.78;;;9.63;100.00
62634;BME280;48704;50.534;6.442;2022-09-25T03:35:35;95283.66;;;9.59;100.00
62634;BME280;48704;50.534;6.442;2022-09-25T03:38:00;95283.66;;;9.59;100.00
62634;BME280;48704;50.534;6.442;2022-09-25T03:40:25;95285.34;;;9.42;100.00
62634;BME280;48704;50.534;6.442;2022-09-25T03:42:50;95290.97;;;9.32;100.00
62634;BME280;48704;50.534;6.442;2022-09-25T03:45:16;95285.53;;;9.23;100.00
62634;BME280;48704;50.534;6.442;2022-09-25T03:47:41;95288.00;;;9.21;100.00
62634;BME280;48704;50.534;6.442;2022-09-25T03:50:07;95294.94;;;9.41;100.00
62634;BME280;48704;50.534;6.442;2022-09-25T03:52:33;95295.88;;;9.37;100.00
62634;BME280;48704;50.534;6.442;2022-09-25T03:54:58;95289.75;;;9.33;100.00
62634;BME280;48704;50.534;6.442;2022-09-25T03:57:23;95291.50;;;9.46;100.00
62634;BME280;48704;50.534;6.442;2022-09-25T03:59:50;95286.78;;;9.22;100.00
62634;BME280;48704;50.534;6.442;2022-09-25T04:02:15;95287.59;;;9.14;100.00
62634;BME280;48704;50.534;6.442;2022-09-25T04:04:40;95291.47;;;9.31;100.00
62634;BME280;48704;50.534;6.442;2022-09-25T04:07:06;95291.16;;;9.29;100.00
62634;BME280;48704;50.534;6.442;2022-09-25T04:09:32;95290.50;;;9.19;100.00
62634;BME280;48704;50.534;6.442;2022-09-25T04:11:58;95289.06;;;9.24;100.00
62634;BME280;48704;50.534;6.442;2022-09-25T04:14:23;95292.97;;;9.17;100.00
62634;BME280;48704;50.534;6.442;2022-09-25T04:16:48;95292.03;;;9.20;100.00
62634;BME280;48704;50.534;6.442;2022-09-25T04:19:14;95296.72;;;9.14;100.00
62634;BME280;48704;50.534;6.442;2022-09-25T04:21:39;95294.28;;;9.07;100.00
62634;BME280;48704;50.534;6.442;2022-09-25T04:24:05;95302.09;;;8.94;100.00
62634;BME280;48704;50.534;6.442;2022-09-25T04:26:49;95297.56;;;8.82;100.00
62634;BME280;48704;50.534;6.442;2022-09-25T04:29:18;95295.09;;;8.84;100.00
62634;BME280;48704;50.534;6.442;2022-09-25T04:31:43;95289.84;;;8.86;100.00
62634;BME280;48704;50.534;6.442;2022-09-25T04:34:28;95301.25;;;8.88;100.00
62634;BME280;48704;50.534;6.442;2022-09-25T04:36:54;95298.66;;;8.99;100.00
62634;BME280;48704;50.534;6.442;2022-09-25T04:39:19;95293.69;;;9.03;100.00
62634;BME280;48704;50.534;6.442;2022-09-25T04:41:45;95293.16;;;9.14;100.00
62634;BME280;48704;50.534;6.442;2022-09-25T04:44:10;95294.41;;;9.13;100.00
62634;BME280;48704;50.534;6.442;2022-09-25T04:46:35;95301.44;;;8.99;100.00
62634;BME280;48704;50.534;6.442;2022-09-25T04:49:00;95299.13;;;9.21;100.00
62634;BME280;48704;50.534;6.442;2022-09-25T04:51:26;95301.25;;;9.26;100.00
62634;BME280;48704;50.534;6.442;2022-09-25T04:53:51;95303.44;;;9.22;100.00
62634;BME280;48704;50.534;6.442;2022-09-25T04:56:16;95308.59;;;9.15;100.00
62634;BME280;48704;50.534;6.442;2022-09-25T04:58:48;95304.03;;;9.26;100.00
62634;BME280;48704;50.534;6.442;2022-09-25T05:01:15;95304.22;;;8.99;100.00
62634;BME280;48704;50.534;6.442;2022-09-25T05:03:40;95303.56;;;9.04;100.00
62634;BME280;48704;50.534;6.442;2022-09-25T05:06:07;95314.19;;;8.91;100.00
62634;BME280;48704;50.534;6.442;2022-09-25T05:08:32;95322.25;;;9.03;100.00
62634;BME280;48704;50.534;6.442;2022-09-25T05:10:57;95315.28;;;9.08;100.00
62634;BME280;48704;50.534;6.442;2022-09-25T05:13:23;95310.13;;;8.92;100.00
62634;BME280;48704;50.534;6.442;2022-09-25T05:15:48;95318.09;;;8.84;100.00
62634;BME280;48704;50.534;6.442;2022-09-25T05:18:19;95313.00;;;8.83;100.00
62634;BME280;48704;50.534;6.442;2022-09-25T05:20:45;95322.53;;;8.91;100.00
62634;BME280;48704;50.534;6.442;2022-09-25T05:23:11;95323.53;;;8.79;100.00
62634;BME280;48704;50.534;6.442;2022-09-25T05:25:36;95325.94;;;8.86;100.00
62634;BME280;48704;50.534;6.442;2022-09-25T05:28:02;95321.81;;;8.81;100.00
62634;BME280;48704;50.534;6.442;2022-09-25T05:30:31;95325.34;;;8.82;100.00
62634;BME280;48704;50.534;6.442;2022-09-25T05:32:56;95333.41;;;8.80;100.00
62634;BME280;48704;50.534;6.442;2022-09-25T05:35:23;95324.16;;;8.74;100.00
62634;BME280;48704;50.534;6.442;2022-09-25T05:37:49;95330.63;;;8.80;100.00
62634;BME280;48704;50.534;6.442;2022-09-25T05:40:16;95327.53;;;8.78;100.00
62634;BME280;48704;50.534;6.442;2022-09-25T05:42:43;95328.22;;;8.63;100.00
62634;BME280;48704;50.534;6.442;2022-09-25T05:45:12;95332.31;;;8.77;100.00
62634;BME280;48704;50.534;6.442;2022-09-25T05:47:39;95332.38;;;8.68;100.00
62634;BME280;48704;50.534;6.442;2022-09-25T05:50:05;95336.16;;;8.80;100.00
62634;BME280;48704;50.534;6.442;2022-09-25T05:52:31;95334.38;;;8.67;100.00
62634;BME280;48704;50.534;6.442;2022-09-25T05:54:56;95341.00;;;8.70;100.00
62634;BME280;48704;50.534;6.442;2022-09-25T05:57:22;95341.31;;;8.72;100.00
62634;BME280;48704;50.534;6.442;2022-09-25T05:59:48;95336.50;;;8.73;100.00
62634;BME280;48704;50.534;6.442;2022-09-25T06:02:14;95333.13;;;8.68;100.00
62634;BME280;48704;50.534;6.442;2022-09-25T06:04:40;95340.06;;;8.73;100.00
62634;BME280;48704;50.534;6.442;2022-09-25T06:07:05;95344.38;;;8.74;100.00
62634;BME280;48704;50.534;6.442;2022-09-25T06:09:31;95341.81;;;8.61;100.00
62634;BME280;48704;50.534;6.442;2022-09-25T06:11:56;95346.44;;;8.64;100.00
62634;BME280;48704;50.534;6.442;2022-09-25T06:14:21;95344.28;;;8.59;100.00
62634;BME280;48704;50.534;6.442;2022-09-25T06:16:47;95343.44;;;8.53;100.00
62634;BME280;48704;50.534;6.442;2022-09-25T06:19:15;95347.31;;;8.70;100.00
62634;BME280;48704;50.534;6.442;2022-09-25T06:21:42;95342.06;;;8.73;100.00
62634;BME280;48704;50.534;6.442;2022-09-25T06:24:07;95344.91;;;8.63;100.00
62634;BME280;48704;50.534;6.442;2022-09-25T06:26:34;95349.06;;;8.59;100.00
62634;BME280;48704;50.534;6.442;2022-09-25T06:29:00;95350.72;;;8.75;100.00
62634;BME280;48704;50.534;6.442;2022-09-25T06:31:27;95351.22;;;8.64;100.00
62634;BME280;48704;50.534;6.442;2022-09-25T06:33:52;95355.06;;;8.66;100.00
62634;BME280;48704;50.534;6.442;2022-09-25T06:36:17;95357.47;;;8.83;100.00
62634;BME280;48704;50.534;6.442;2022-09-25T06:38:43;95358.34;;;8.89;100.00
62634;BME280;48704;50.534;6.442;2022-09-25T06:41:08;95356.84;;;8.79;100.00
62634;BME280;48704;50.534;6.442;2022-09-25T06:43:33;95358.06;;;8.87;100.00
62634;BME280;48704;50.534;6.442;2022-09-25T06:46:00;95351.94;;;8.97;100.00
62634;BME280;48704;50.534;6.442;2022-09-25T06:48:28;95352.13;;;8.94;100.00
62634;BME280;48704;50.534;6.442;2022-09-25T06:50:56;95357.69;;;8.94;100.00
62634;BME280;48704;50.534;6.442;2022-09-25T06:53:23;95354.59;;;8.92;100.00
62634;BME280;48704;50.534;6.442;2022-09-25T06:55:49;95365.53;;;8.95;100.00
62634;BME280;48704;50.534;6.442;2022-09-25T06:58:20;95362.66;;;8.90;100.00
62634;BME280;48704;50.534;6.442;2022-09-25T07:00:47;95360.84;;;8.87;100.00
62634;BME280;48704;50.534;6.442;2022-09-25T07:03:13;95369.16;;;8.87;100.00
62634;BME280;48704;50.534;6.442;2022-09-25T07:06:01;95366.25;;;9.05;100.00
62634;BME280;48704;50.534;6.442;2022-09-25T07:08:28;95360.63;;;8.66;100.00
62634;BME280;48704;50.534;6.442;2022-09-25T07:10:54;95365.25;;;8.69;100.00
62634;BME280;48704;50.534;6.442;2022-09-25T07:13:23;95374.59;;;9.05;100.00
62634;BME280;48704;50.534;6.442;2022-09-25T07:15:53;95374.34;;;8.94;100.00
62634;BME280;48704;50.534;6.442;2022-09-25T07:18:22;95379.25;;;8.99;100.00
62634;BME280;48704;50.534;6.442;2022-09-25T07:20:48;95384.72;;;9.17;100.00
62634;BME280;48704;50.534;6.442;2022-09-25T07:23:16;95378.25;;;9.35;100.00
62634;BME280;48704;50.534;6.442;2022-09-25T07:25:42;95377.28;;;9.38;100.00
62634;BME280;48704;50.534;6.442;2022-09-25T07:28:08;95381.03;;;9.35;100.00
62634;BME280;48704;50.534;6.442;2022-09-25T07:30:34;95389.47;;;9.41;100.00
62634;BME280;48704;50.534;6.442;2022-09-25T07:33:00;95392.78;;;9.54;100.00
62634;BME280;48704;50.534;6.442;2022-09-25T07:35:26;95385.50;;;9.56;100.00
62634;BME280;48704;50.534;6.442;2022-09-25T07:37:54;95378.81;;;9.63;100.00
62634;BME280;48704;50.534;6.442;2022-09-25T07:40:20;95388.19;;;9.51;100.00
62634;BME280;48704;50.534;6.442;2022-09-25T07:42:45;95383.25;;;9.84;100.00
62634;BME280;48704;50.534;6.442;2022-09-25T07:45:10;95387.56;;;9.85;100.00
62634;BME280;48704;50.534;6.442;2022-09-25T07:47:36;95383.06;;;10.02;100.00
62634;BME280;48704;50.534;6.442;2022-09-25T07:50:01;95380.38;;;10.08;100.00
62634;BME280;48704;50.534;6.442;2022-09-25T07:52:27;95387.47;;;10.09;100.00
62634;BME280;48704;50.534;6.442;2022-09-25T07:54:52;95385.75;;;10.12;100.00
62634;BME280;48704;50.534;6.442;2022-09-25T07:57:17;95395.59;;;10.22;100.00
62634;BME280;48704;50.534;6.442;2022-09-25T07:59:45;95392.47;;;9.90;100.00
62634;BME280;48704;50.534;6.442;2022-09-25T08:02:11;95390.66;;;9.87;100.00
62634;BME280;48704;50.534;6.442;2022-09-25T08:04:36;95394.75;;;9.77;100.00
62634;BME280;48704;50.534;6.442;2022-09-25T08:07:02;95396.81;;;9.53;100.00
62634;BME280;48704;50.534;6.442;2022-09-25T08:09:27;95387.00;;;9.43;100.00
62634;BME280;48704;50.534;6.442;2022-09-25T08:11:52;95388.91;;;9.90;100.00
62634;BME280;48704;50.534;6.442;2022-09-25T08:14:18;95389.88;;;10.16;100.00
62634;BME280;48704;50.534;6.442;2022-09-25T08:16:43;95394.69;;;10.16;100.00
62634;BME280;48704;50.534;6.442;2022-09-25T08:19:09;95396.38;;;10.87;100.00
62634;BME280;48704;50.534;6.442;2022-09-25T08:21:35;95394.09;;;10.70;100.00
62634;BME280;48704;50.534;6.442;2022-09-25T08:24:00;95391.19;;;10.30;100.00
62634;BME280;48704;50.534;6.442;2022-09-25T08:26:26;95398.78;;;9.76;100.00
62634;BME280;48704;50.534;6.442;2022-09-25T08:28:53;95390.34;;;9.85;100.00
62634;BME280;48704;50.534;6.442;2022-09-25T08:31:19;95400.69;;;9.70;100.00
62634;BME280;48704;50.534;6.442;2022-09-25T08:33:46;95397.25;;;9.75;100.00
62634;BME280;48704;50.534;6.442;2022-09-25T08:36:11;95401.50;;;9.47;100.00
62634;BME280;48704;50.534;6.442;2022-09-25T08:38:36;95398.59;;;9.65;100.00
62634;BME280;48704;50.534;6.442;2022-09-25T08:41:16;95398.19;;;9.57;100.00
62634;BME280;48704;50.534;6.442;2022-09-25T08:43:52;95410.69;;;9.77;100.00
62634;BME280;48704;50.534;6.442;2022-09-25T08:46:48;95408.06;;;9.73;100.00
62634;BME280;48704;50.534;6.442;2022-09-25T08:49:45;95400.84;;;9.52;100.00
62634;BME280;48704;50.534;6.442;2022-09-25T08:52:17;95399.53;;;9.77;100.00
62634;BME280;48704;50.534;6.442;2022-09-25T08:54:42;95397.75;;;10.18;100.00
62634;BME280;48704;50.534;6.442;2022-09-25T08:57:36;95403.84;;;10.31;100.00
62634;BME280;48704;50.534;6.442;2022-09-25T09:00:17;95400.19;;;10.25;100.00
62634;BME280;48704;50.534;6.442;2022-09-25T09:02:49;95401.50;;;10.59;100.00
62634;BME280;48704;50.534;6.442;2022-09-25T09:05:30;95400.09;;;10.34;100.00
62634;BME280;48704;50.534;6.442;2022-09-25T09:08:04;95402.28;;;10.74;100.00
62634;BME280;48704;50.534;6.442;2022-09-25T09:10:43;95400.84;;;10.99;100.00
62634;BME280;48704;50.534;6.442;2022-09-25T09:13:18;95390.38;;;10.59;100.00
62634;BME280;48704;50.534;6.442;2022-09-25T09:16:00;95400.94;;;10.69;100.00
62634;BME280;48704;50.534;6.442;2022-09-25T09:18:29;95400.91;;;10.11;100.00
62634;BME280;48704;50.534;6.442;2022-09-25T09:23:34;95402.47;;;10.12;100.00
62634;BME280;48704;50.534;6.442;2022-09-25T09:26:14;95400.75;;;9.99;100.00
62634;BME280;48704;50.534;6.442;2022-09-25T09:31:38;95407.28;;;10.70;100.00
62634;BME280;48704;50.534;6.442;2022-09-25T09:37:37;95403.56;;;11.49;100.00
62634;BME280;48704;50.534;6.442;2022-09-25T09:45:24;95405.69;;;13.74;100.00
62634;BME280;48704;50.534;6.442;2022-09-25T09:48:04;95412.31;;;13.71;100.00
62634;BME280;48704;50.534;6.442;2022-09-25T09:50:44;95405.97;;;13.82;98.13
62634;BME280;48704;50.534;6.442;2022-09-25T09:58:46;95397.78;;;13.67;100.00
62634;BME280;48704;50.534;6.442;2022-09-25T10:01:14;95404.25;;;13.95;96.18
62634;BME280;48704;50.534;6.442;2022-09-25T10:03:43;95399.94;;;14.05;96.58
62634;BME280;48704;50.534;6.442;2022-09-25T10:06:14;95393.84;;;14.13;96.35
62634;BME280;48704;50.534;6.442;2022-09-25T10:08:40;95391.28;;;11.81;100.00
62634;BME280;48704;50.534;6.442;2022-09-25T10:11:14;95397.34;;;11.80;100.00
62634;BME280;48704;50.534;6.442;2022-09-25T10:13:40;95388.06;;;11.27;100.00
62634;BME280;48704;50.534;6.442;2022-09-25T10:16:12;95400.47;;;12.70;100.00
62634;BME280;48704;50.534;6.442;2022-09-25T10:21:23;95399.09;;;12.29;100.00
62634;BME280;48704;50.534;6.442;2022-09-25T10:23:53;95396.09;;;12.58;100.00
62634;BME280;48704;50.534;6.442;2022-09-25T10:26:22;95396.78;;;13.70;98.82
62634;BME280;48704;50.534;6.442;2022-09-25T10:28:48;95394.50;;;13.20;100.00
62634;BME280;48704;50.534;6.442;2022-09-25T10:31:14;95388.56;;;12.76;100.00
62634;BME280;48704;50.534;6.442;2022-09-25T10:33:40;95396.66;;;13.48;95.52
62634;BME280;48704;50.534;6.442;2022-09-25T10:36:05;95392.38;;;14.39;94.14
62634;BME280;48704;50.534;6.442;2022-09-25T10:38:35;95390.56;;;12.69;96.60
62634;BME280;48704;50.534;6.442;2022-09-25T10:41:10;95396.69;;;12.42;100.00
62634;BME280;48704;50.534;6.442;2022-09-25T10:43:56;95398.84;;;12.90;88.48
62634;BME280;48704;50.534;6.442;2022-09-25T10:49:15;95398.59;;;15.80;76.59
62634;BME280;48704;50.534;6.442;2022-09-25T10:52:05;95396.25;;;17.31;70.20
62634;BME280;48704;50.534;6.442;2022-09-25T10:54:31;95399.03;;;17.37;66.34
62634;BME280;48704;50.534;6.442;2022-09-25T10:56:57;95402.41;;;17.54;67.99
62634;BME280;48704;50.534;6.442;2022-09-25T10:59:24;95397.81;;;15.85;74.73
62634;BME280;48704;50.534;6.442;2022-09-25T11:01:51;95396.13;;;16.12;71.68
62634;BME280;48704;50.534;6.442;2022-09-25T11:04:24;95402.84;;;16.80;66.62
62634;BME280;48704;50.534;6.442;2022-09-25T11:06:55;95388.81;;;17.34;66.11
62634;BME280;48704;50.534;6.442;2022-09-25T11:09:23;95390.50;;;17.18;66.31
62634;BME280;48704;50.534;6.442;2022-09-25T11:11:51;95392.09;;;18.06;65.35
62634;BME280;48704;50.534;6.442;2022-09-25T11:14:32;95389.88;;;18.36;63.88
62634;BME280;48704;50.534;6.442;2022-09-25T11:16:59;95386.72;;;18.58;66.36
62634;BME280;48704;50.534;6.442;2022-09-25T11:19:28;95388.19;;;18.46;62.22
62634;BME280;48704;50.534;6.442;2022-09-25T11:24:57;95389.28;;;16.01;68.64
62634;BME280;48704;50.534;6.442;2022-09-25T11:27:34;95384.31;;;15.72;71.63
62634;BME280;48704;50.534;6.442;2022-09-25T11:30:21;95390.47;;;13.86;77.82
62634;BME280;48704;50.534;6.442;2022-09-25T11:32:53;95389.66;;;13.69;83.24
62634;BME280;48704;50.534;6.442;2022-09-25T11:35:32;95374.50;;;16.36;73.71
62634;BME280;48704;50.534;6.442;2022-09-25T11:41:14;95377.34;;;14.54;66.53
62634;BME280;48704;50.534;6.442;2022-09-25T11:44:11;95371.16;;;15.28;66.98
62634;BME280;48704;50.534;6.442;2022-09-25T11:46:59;95377.66;;;15.75;66.59
62634;BME280;48704;50.534;6.442;2022-09-25T11:49:37;95374.31;;;16.70;66.75
62634;BME280;48704;50.534;6.442;2022-09-25T11:52:17;95372.25;;;14.52;70.73
62634;BME280;48704;50.534;6.442;2022-09-25T12:00:23;95369.41;;;14.08;76.37
62634;BME280;48704;50.534;6.442;2022-09-25T12:05:56;95369.41;;;14.30;69.76
62634;BME280;48704;50.534;6.442;2022-09-25T12:13:58;95368.66;;;14.85;75.48
62634;BME280;48704;50.534;6.442;2022-09-25T12:36:05;95366.94;;;12.70;81.24
62634;BME280;48704;50.534;6.442;2022-09-25T12:38:42;95365.97;;;13.70;74.43
62634;BME280;48704;50.534;6.442;2022-09-25T12:41:11;95353.59;;;15.05;72.45
62634;BME280;48704;50.534;6.442;2022-09-25T12:43:57;95354.94;;;15.73;64.77
62634;BME280;48704;50.534;6.442;2022-09-25T12:47:02;95348.00;;;15.11;65.51
62634;BME280;48704;50.534;6.442;2022-09-25T12:49:39;95351.31;;;17.20;59.03
62634;BME280;48704;50.534;6.442;2022-09-25T12:52:26;95345.06;;;17.52;58.83
62634;BME280;48704;50.534;6.442;2022-09-25T12:54:57;95341.50;;;17.27;61.22
62634;BME280;48704;50.534;6.442;2022-09-25T12:57:38;95341.75;;;16.03;64.67
62634;BME280;48704;50.534;6.442;2022-09-25T13:02:56;95337.81;;;16.53;58.70
62634;BME280;48704;50.534;6.442;2022-09-25T13:06:18;95332.09;;;18.24;56.04
62634;BME280;48704;50.534;6.442;2022-09-25T13:08:59;95336.16;;;17.48;55.29
62634;BME280;48704;50.534;6.442;2022-09-25T13:11:42;95327.97;;;15.48;61.64
62634;BME280;48704;50.534;6.442;2022-09-25T13:16:55;95323.38;;;17.22;55.75
62634;BME280;48704;50.534;6.442;2022-09-25T13:19:26;95320.06;;;18.74;54.47
62634;BME280;48704;50.534;6.442;2022-09-25T13:22:02;95314.59;;;17.31;53.97
62634;BME280;48704;50.534;6.442;2022-09-25T13:24:29;95308.38;;;17.82;56.62
62634;BME280;48704;50.534;6.442;2022-09-25T13:26:58;95316.69;;;16.05;59.63
62634;BME280;48704;50.534;6.442;2022-09-25T13:29:35;95316.00;;;17.62;58.63
62634;BME280;48704;50.534;6.442;2022-09-25T13:34:36;95311.53;;;17.91;60.75
62634;BME280;48704;50.534;6.442;2022-09-25T13:37:04;95311.59;;;18.23;58.31
62634;BME280;48704;50.534;6.442;2022-09-25T13:39:40;95307.44;;;19.20;53.59
62634;BME280;48704;50.534;6.442;2022-09-25T13:45:45;95310.78;;;19.72;51.42
62634;BME280;48704;50.534;6.442;2022-09-25T13:53:14;95315.66;;;17.90;55.87
62634;BME280;48704;50.534;6.442;2022-09-25T13:58:21;95310.25;;;19.07;53.12
62634;BME280;48704;50.534;6.442;2022-09-25T14:03:39;95298.81;;;15.62;58.70
62634;BME280;48704;50.534;6.442;2022-09-25T14:06:16;95298.31;;;14.83;64.81
62634;BME280;48704;50.534;6.442;2022-09-25T14:08:44;95302.59;;;13.67;71.85
62634;BME280;48704;50.534;6.442;2022-09-25T14:11:15;95293.97;;;13.87;74.17
62634;BME280;48704;50.534;6.442;2022-09-25T14:13:41;95298.47;;;13.57;74.98
62634;BME280;48704;50.534;6.442;2022-09-25T14:16:23;95293.50;;;14.50;76.29
62634;BME280;48704;50.534;6.442;2022-09-25T14:18:51;95291.28;;;15.87;65.22
62634;BME280;48704;50.534;6.442;2022-09-25T14:21:19;95293.47;;;16.70;59.10
62634;BME280;48704;50.534;6.442;2022-09-25T14:23:50;95294.78;;;16.94;55.83
62634;BME280;48704;50.534;6.442;2022-09-25T14:26:27;95296.69;;;16.80;56.19
62634;BME280;48704;50.534;6.442;2022-09-25T14:28:55;95298.09;;;14.64;63.79
62634;BME280;48704;50.534;6.442;2022-09-25T14:42:24;95287.41;;;14.46;69.26
62634;BME280;48704;50.534;6.442;2022-09-25T14:48:11;95286.44;;;16.83;60.25
62634;BME280;48704;50.534;6.442;2022-09-25T14:50:44;95292.50;;;16.62;59.49
62634;BME280;48704;50.534;6.442;2022-09-25T14:53:13;95284.31;;;14.66;63.63
62634;BME280;48704;50.534;6.442;2022-09-25T14:55:44;95281.66;;;12.12;74.36
62634;BME280;48704;50.534;6.442;2022-09-25T14:58:16;95285.63;;;12.74;76.89
62634;BME280;48704;50.534;6.442;2022-09-25T15:00:44;95284.06;;;12.30;77.73
62634;BME280;48704;50.534;6.442;2022-09-25T15:03:13;95282.53;;;12.24;81.71
62634;BME280;48704;50.534;6.442;2022-09-25T15:05:44;95283.41;;;12.10;83.25
62634;BME280;48704;50.534;6.442;2022-09-25T15:08:22;95271.97;;;13.35;80.83
62634;BME280;48704;50.534;6.442;2022-09-25T15:11:00;95267.91;;;15.04;72.50
62634;BME280;48704;50.534;6.442;2022-09-25T15:13:25;95258.75;;;14.87;70.28
62634;BME280;48704;50.534;6.442;2022-09-25T15:15:57;95267.22;;;15.45;68.55
62634;BME280;48704;50.534;6.442;2022-09-25T15:18:43;95265.03;;;16.44;61.68
62634;BME280;48704;50.534;6.442;2022-09-25T15:21:16;95258.22;;;15.98;63.71